Terminal Aerodrome Forecast
Issued by NWS Nashville, TN

Home | Current Version | Previous Version | Text Only | Print | Product List | Glossary On
Versions: 1 2 3 4 5 6 7 8 9 10 11 12 13 14 15
000
FTUS44 KOHX 262358 AAA
TAFCSV
TAF AMD
KCSV 262358Z 2700/2724 03010KT P6SM VCTS BKN050CB
     FM270300 VRB04KT P6SM BKN150
     FM270900 00000KT 4SM BR SCT250
     FM271300 18007KT P6SM BKN150=

USA.gov is the U.S. government's official web portal to all federal, state and local government web resources and services.